Observation data for Abernathy on 02/14/2020      Previous  Date  Next       Current Mesonet Observations  Soil Data  Daily Summary Page  Observations in Plain Language
KARS 140600Z 12011KT M03/M05 A3029 RMK A01 T10331052  RH  087%=      5-min Rain = 0
KARS 140605Z 12013KT M03/M05 A3029 RMK A01 T10341054  RH  086%=      5-min Rain = 0
KARS 140610Z 12011KT M03/M05 A3029 RMK A01 T10341054  RH  086%=      5-min Rain = 0
KARS 140615Z 12012KT M04/M06 A3029 RMK A01 T10351055  RH  086%=      5-min Rain = 0
KARS 140620Z 12011KT M04/M06 A3029 RMK A01 T10351056  RH  086%=      5-min Rain = 0
KARS 140625Z 12012KT M04/M06 A3029 RMK A01 T10361057  RH  086%=      5-min Rain = 0
KARS 140630Z 12011KT M04/M06 A3029 RMK A01 T10361057  RH  086%=      5-min Rain = 0
KARS 140635Z 12011KT M04/M06 A3029 RMK A01 T10371058  RH  086%=      5-min Rain = 0
KARS 140640Z 12010G15KT M04/M06 A3029 RMK A01 T10381058  RH  086%=      5-min Rain = 0
KARS 140645Z 12012KT M04/M06 A3029 RMK A01 T10381060  RH  085%=      5-min Rain = 0
KARS 140650Z 12012KT M04/M06 A3029 RMK A01 T10381061  RH  084%=      5-min Rain = 0
KARS 140655Z 12011KT M04/M06 A3029 RMK A01 T10391062  RH  084%=      5-min Rain = 0
KARS 140700Z 13010KT M04/M06 A3029 RMK A01 T10391062  RH  084%=      5-min Rain = 0
KARS 140705Z 12010KT M04/M06 A3029 RMK A01 T10401063  RH  084%=      5-min Rain = 0
KARS 140710Z 12010KT M04/M06 A3029 RMK A01 T10411063  RH  084%=      5-min Rain = 0
KARS 140715Z 13009KT M04/M06 A3029 RMK A01 T10411064  RH  084%=      5-min Rain = 0
KARS 140720Z 12009KT M04/M06 A3029 RMK A01 T10421064  RH  085%=      5-min Rain = 0
KARS 140725Z 13010KT M04/M06 A3029 RMK A01 T10431064  RH  085%=      5-min Rain = 0
KARS 140730Z 13010KT M04/M07 A3029 RMK A01 T10431065  RH  084%=      5-min Rain = 0
KARS 140735Z 13010KT M04/M07 A3029 RMK A01 T10441066  RH  084%=      5-min Rain = 0
KARS 140740Z 13009KT M04/M07 A3029 RMK A01 T10441066  RH  085%=      5-min Rain = 0
KARS 140745Z 13009KT M05/M07 A3029 RMK A01 T10451066  RH  085%=      5-min Rain = 0
KARS 140750Z 13009KT M05/M07 A3029 RMK A01 T10451067  RH  085%=      5-min Rain = 0
KARS 140755Z 13008KT M05/M07 A3029 RMK A01 T10461067  RH  085%=      5-min Rain = 0
KARS 140800Z 12008KT M05/M07 A3029 RMK A01 T10461066  RH  086%=      5-min Rain = 0
KARS 140805Z 12008KT M05/M07 A303 RMK A01 T10471066  RH  086%=      5-min Rain = 0
KARS 140810Z 13007KT M05/M07 A303 RMK A01 T10471066  RH  087%=      5-min Rain = 0
KARS 140815Z 13007KT M05/M07 A303 RMK A01 T10471066  RH  087%=      5-min Rain = 0
KARS 140820Z 13007KT M05/M07 A303 RMK A01 T10471067  RH  086%=      5-min Rain = 0
KARS 140825Z 13007KT M05/M07 A303 RMK A01 T10471067  RH  086%=      5-min Rain = 0
KARS 140830Z 12007KT M05/M07 A303 RMK A01 T10481067  RH  086%=      5-min Rain = 0
KARS 140835Z 12006KT M05/M07 A303 RMK A01 T10471067  RH  087%=      5-min Rain = 0
KARS 140840Z 12006KT M05/M07 A303 RMK A01 T10471066  RH  087%=      5-min Rain = 0
KARS 140845Z 12007KT M05/M07 A303 RMK A01 T10471066  RH  086%=      5-min Rain = 0
KARS 140850Z 12006KT M05/M07 A303 RMK A01 T10471066  RH  087%=      5-min Rain = 0
KARS 140855Z 13006KT M05/M07 A303 RMK A01 T10491068  RH  086%=      5-min Rain = 0
KARS 140900Z 11006KT M05/M07 A3031 RMK A01 T10501069  RH  087%=      5-min Rain = 0
KARS 140905Z 12006KT M05/M07 A3031 RMK A01 T10511069  RH  087%=      5-min Rain = 0
KARS 140910Z 12007KT M05/M07 A3031 RMK A01 T10521070  RH  087%=      5-min Rain = 0
KARS 140915Z 12006KT M05/M07 A303 RMK A01 T10521070  RH  087%=      5-min Rain = 0
KARS 140920Z 12006KT M05/M07 A303 RMK A01 T10531071  RH  087%=      5-min Rain = 0
KARS 140925Z 12006KT M05/M07 A303 RMK A01 T10531071  RH  087%=      5-min Rain = 0
KARS 140930Z 12006KT M05/M07 A303 RMK A01 T10541072  RH  087%=      5-min Rain = 0
KARS 140935Z 12006KT M06/M07 A303 RMK A01 T10551072  RH  087%=      5-min Rain = 0
KARS 140940Z 12005KT M06/M07 A303 RMK A01 T10551072  RH  088%=      5-min Rain = 0
KARS 140945Z 12005KT M06/M07 A303 RMK A01 T10561073  RH  088%=      5-min Rain = 0
KARS 140950Z 12005KT M06/M07 A303 RMK A01 T10561073  RH  088%=      5-min Rain = 0
KARS 140955Z 12005KT M06/M07 A303 RMK A01 T10561073  RH  088%=      5-min Rain = 0
KARS 141000Z 13005KT M06/M07 A303 RMK A01 T10571073  RH  088%=      5-min Rain = 0
KARS 141005Z 13005KT M06/M07 A303 RMK A01 T10561073  RH  088%=      5-min Rain = 0
KARS 141010Z 12005KT M06/M07 A303 RMK A01 T10561072  RH  088%=      5-min Rain = 0
KARS 141015Z 12006KT M06/M07 A303 RMK A01 T10551072  RH  088%=      5-min Rain = 0
KARS 141020Z 12006KT M05/M07 A303 RMK A01 T10541071  RH  088%=      5-min Rain = 0
KARS 141025Z 12006KT M05/M07 A303 RMK A01 T10531072  RH  087%=      5-min Rain = 0
KARS 141030Z 12006KT M05/M07 A303 RMK A01 T10521071  RH  087%=      5-min Rain = 0
KARS 141035Z 12007KT M05/M07 A303 RMK A01 T10531072  RH  086%=      5-min Rain = 0
KARS 141040Z 13007KT M05/M07 A303 RMK A01 T10531073  RH  086%=      5-min Rain = 0
KARS 141045Z 13008KT M05/M07 A303 RMK A01 T10521072  RH  086%=      5-min Rain = 0
KARS 141050Z 12008KT M05/M07 A303 RMK A01 T10521073  RH  085%=      5-min Rain = 0
KARS 141055Z 12008KT M05/M07 A303 RMK A01 T10521073  RH  085%=      5-min Rain = 0
KARS 141100Z 12007KT M05/M07 A303 RMK A01 T10521072  RH  086%=      5-min Rain = 0
KARS 141105Z 12008KT M05/M07 A303 RMK A01 T10521073  RH  085%=      5-min Rain = 0
KARS 141110Z 12008KT M05/M07 A303 RMK A01 T10521074  RH  085%=      5-min Rain = 0
KARS 141115Z 12007KT M05/M07 A303 RMK A01 T10521073  RH  085%=      5-min Rain = 0
KARS 141120Z 13007KT M05/M07 A303 RMK A01 T10521073  RH  085%=      5-min Rain = 0
KARS 141125Z 13007KT M05/M07 A303 RMK A01 T10531074  RH  085%=      5-min Rain = 0
KARS 141130Z 13008KT M05/M08 A303 RMK A01 T10541075  RH  085%=      5-min Rain = 0
KARS 141135Z 14008KT M05/M08 A303 RMK A01 T10541075  RH  085%=      5-min Rain = 0
KARS 141140Z 14008KT M06/M08 A303 RMK A01 T10551075  RH  085%=      5-min Rain = 0
KARS 141145Z 14008KT M06/M08 A303 RMK A01 T10551075  RH  086%=      5-min Rain = 0
KARS 141150Z 14007KT M06/M07 A303 RMK A01 T10551074  RH  086%=      5-min Rain = 0
KARS 141155Z 14007KT M06/M07 A303 RMK A01 T10551074  RH  087%=      5-min Rain = 0
KARS 141200Z 14008KT M06/M07 A303 RMK A01 T10551074  RH  087%=      5-min Rain = 0
KARS 141205Z 14009KT M05/M07 A303 RMK A01 T10541074  RH  086%=      5-min Rain = 0
KARS 141210Z 14010KT M05/M08 A303 RMK A01 T10541075  RH  085%=      5-min Rain = 0
KARS 141215Z 14009KT M05/M08 A303 RMK A01 T10531076  RH  084%=      5-min Rain = 0
KARS 141220Z 14008KT M05/M08 A303 RMK A01 T10531075  RH  085%=      5-min Rain = 0
KARS 141225Z 14010KT M05/M08 A303 RMK A01 T10531076  RH  084%=      5-min Rain = 0
KARS 141230Z 14009KT M05/M08 A303 RMK A01 T10531076  RH  084%=      5-min Rain = 0
KARS 141235Z 14009KT M05/M08 A303 RMK A01 T10531076  RH  084%=      5-min Rain = 0
KARS 141240Z 14008KT M05/M08 A303 RMK A01 T10521075  RH  084%=      5-min Rain = 0
KARS 141245Z 14009KT M05/M08 A303 RMK A01 T10531076  RH  084%=      5-min Rain = 0
KARS 141250Z 14008KT M05/M08 A303 RMK A01 T10531076  RH  083%=      5-min Rain = 0
KARS 141255Z 14008KT M05/M08 A303 RMK A01 T10521076  RH  083%=      5-min Rain = 0
KARS 141300Z 15008KT M05/M08 A303 RMK A01 T10521077  RH  083%=      5-min Rain = 0
KARS 141305Z 15009KT M05/M08 A303 RMK A01 T10521077  RH  083%=      5-min Rain = 0
KARS 141310Z 15008KT M05/M08 A303 RMK A01 T10521076  RH  083%=      5-min Rain = 0
KARS 141315Z 15009KT M05/M08 A303 RMK A01 T10521077  RH  083%=      5-min Rain = 0
KARS 141320Z 15008KT M05/M08 A303 RMK A01 T10521076  RH  083%=      5-min Rain = 0
KARS 141325Z 15009KT M05/M08 A3031 RMK A01 T10521077  RH  083%=      5-min Rain = 0
KARS 141330Z 16009KT M05/M08 A3031 RMK A01 T10521076  RH  083%=      5-min Rain = 0
KARS 141335Z 15009KT M05/M08 A3031 RMK A01 T10521076  RH  083%=      5-min Rain = 0
KARS 141340Z 16009KT M05/M08 A3031 RMK A01 T10511076  RH  083%=      5-min Rain = 0
KARS 141345Z 15008KT M05/M08 A3031 RMK A01 T10511075  RH  083%=      5-min Rain = 0
KARS 141350Z 15008KT M05/M07 A3032 RMK A01 T10501074  RH  083%=      5-min Rain = 0
KARS 141355Z 16009KT M05/M08 A3032 RMK A01 T10511075  RH  083%=      5-min Rain = 0
KARS 141400Z 15009KT M05/M08 A3032 RMK A01 T10501075  RH  083%=      5-min Rain = 0
KARS 141405Z 16009KT M05/M07 A3032 RMK A01 T10491074  RH  083%=      5-min Rain = 0
KARS 141410Z 16009KT M05/M07 A3032 RMK A01 T10501074  RH  083%=      5-min Rain = 0
KARS 141415Z 16009KT M05/M07 A3032 RMK A01 T10491073  RH  084%=      5-min Rain = 0
KARS 141420Z 16008KT M05/M07 A3032 RMK A01 T10491071  RH  085%=      5-min Rain = 0
KARS 141425Z 16009KT M05/M07 A3032 RMK A01 T10481069  RH  085%=      5-min Rain = 0
KARS 141430Z 16009KT M05/M07 A3032 RMK A01 T10471068  RH  085%=      5-min Rain = 0
KARS 141435Z 17009KT M05/M07 A3032 RMK A01 T10461065  RH  087%=      5-min Rain = 0
KARS 141440Z 17009KT M05/M06 A3032 RMK A01 T10471063  RH  088%=      5-min Rain = 0
KARS 141445Z 17009KT M05/M06 A3032 RMK A01 T10471062  RH  089%=      5-min Rain = 0
KARS 141450Z 16007KT M05/M06 A3032 RMK A01 T10461061  RH  090%=      5-min Rain = 0
KARS 141455Z 16008KT M04/M06 A3032 RMK A01 T10441059  RH  090%=      5-min Rain = 0
KARS 141500Z 16008KT M05/M06 A3033 RMK A01 T10451059  RH  090%=      5-min Rain = 0
KARS 141505Z 16008KT M04/M06 A3032 RMK A01 T10441058  RH  090%=      5-min Rain = 0
KARS 141510Z 16008KT M04/M06 A3033 RMK A01 T10441057  RH  091%=      5-min Rain = 0
KARS 141515Z 15008KT M04/M06 A3032 RMK A01 T10431055  RH  091%=      5-min Rain = 0
KARS 141520Z 15009KT M04/M05 A3032 RMK A01 T10421054  RH  091%=      5-min Rain = 0
KARS 141525Z 15009KT M04/M05 A3032 RMK A01 T10411054  RH  091%=      5-min Rain = 0
KARS 141530Z 15009KT M04/M05 A3032 RMK A01 T10411053  RH  091%=      5-min Rain = 0
KARS 141535Z 15009KT M04/M05 A3032 RMK A01 T10401052  RH  092%=      5-min Rain = 0
KARS 141540Z 15009KT M04/M05 A3032 RMK A01 T10391050  RH  092%=      5-min Rain = 0
KARS 141545Z 15009KT M04/M05 A3032 RMK A01 T10381049  RH  092%=      5-min Rain = 0
KARS 141550Z 16010KT M04/M05 A3032 RMK A01 T10381049  RH  093%=      5-min Rain = 0
KARS 141555Z 15010KT M04/M05 A3032 RMK A01 T10371047  RH  093%=      5-min Rain = 0
KARS 141600Z 16009KT M04/M05 A3032 RMK A01 T10361046  RH  093%=      5-min Rain = 0
KARS 141605Z 16010KT M04/M05 A3032 RMK A01 T10351045  RH  093%=      5-min Rain = 0
KARS 141610Z 16009KT M04/M05 A3032 RMK A01 T10351045  RH  094%=      5-min Rain = 0
KARS 141615Z 16011KT M04/M05 A3031 RMK A01 T10351045  RH  093%=      5-min Rain = 0
KARS 141620Z 17010KT M04/M04 A3031 RMK A01 T10351044  RH  094%=      5-min Rain = 0
KARS 141625Z 16010KT M03/M04 A3031 RMK A01 T10341043  RH  094%=      5-min Rain = 0
KARS 141630Z 17012KT M03/M04 A3031 RMK A01 T10331041  RH  094%=      5-min Rain = 0
KARS 141635Z 16010KT M03/M04 A3031 RMK A01 T10321040  RH  095%=      5-min Rain = 0
KARS 141640Z 17011KT M03/M04 A3031 RMK A01 T10321039  RH  095%=      5-min Rain = 0
KARS 141645Z 17011KT M03/M04 A3031 RMK A01 T10301038  RH  095%=      5-min Rain = 0
KARS 141650Z 16012KT M03/M04 A3031 RMK A01 T10301037  RH  095%=      5-min Rain = 0
KARS 141655Z 17011KT M03/M04 A3031 RMK A01 T10301037  RH  095%=      5-min Rain = 0
KARS 141700Z 17011KT M03/M04 A3031 RMK A01 T10281035  RH  096%=      5-min Rain = 0
KARS 141705Z 17011KT M03/M04 A3031 RMK A01 T10281035  RH  095%=      5-min Rain = 0
KARS 141710Z 17010KT M03/M04 A3031 RMK A01 T10281036  RH  095%=      5-min Rain = 0
KARS 141715Z 17012KT M03/M03 A3031 RMK A01 T10271034  RH  095%=      5-min Rain = 0
KARS 141720Z 17010KT M03/M03 A303 RMK A01 T10251033  RH  095%=      5-min Rain = 0
KARS 141725Z 17011KT M03/M03 A303 RMK A01 T10261033  RH  095%=      5-min Rain = 0
KARS 141730Z 17011KT M03/M03 A303 RMK A01 T10251033  RH  095%=      5-min Rain = 0
KARS 141735Z 18011KT M03/M03 A303 RMK A01 T10251033  RH  095%=      5-min Rain = 0
KARS 141740Z 18010KT M02/M03 A303 RMK A01 T10231031  RH  094%=      5-min Rain = 0
KARS 141745Z 18011KT M02/M03 A303 RMK A01 T10231032  RH  094%=      5-min Rain = 0
KARS 141750Z 18011KT M02/M03 A303 RMK A01 T10221032  RH  093%=      5-min Rain = 0
KARS 141755Z 18012KT M02/M03 A303 RMK A01 T10221033  RH  093%=      5-min Rain = 0
KARS 141800Z 18012KT M02/M03 A3029 RMK A01 T10211031  RH  093%=      5-min Rain = 0
KARS 141805Z 19012KT M02/M03 A3029 RMK A01 T10201031  RH  093%=      5-min Rain = 0
KARS 141810Z 19011KT M02/M03 A3029 RMK A01 T10191030  RH  092%=      5-min Rain = 0
KARS 141815Z 20012KT M02/M03 A3029 RMK A01 T10201032  RH  092%=      5-min Rain = 0
KARS 141820Z 18012KT M02/M03 A3029 RMK A01 T10191031  RH  092%=      5-min Rain = 0
KARS 141825Z 19012KT M02/M03 A3028 RMK A01 T10191030  RH  093%=      5-min Rain = 0
KARS 141830Z 19012KT M02/M03 A3028 RMK A01 T10171028  RH  093%=      5-min Rain = 0
KARS 141835Z 19012KT M02/M03 A3028 RMK A01 T10161028  RH  092%=      5-min Rain = 0
KARS 141840Z 19011KT M02/M03 A3027 RMK A01 T10161028  RH  092%=      5-min Rain = 0
KARS 141845Z 20013KT M01/M03 A3027 RMK A01 T10141027  RH  092%=      5-min Rain = 0
KARS 141850Z 21012KT M01/M03 A3027 RMK A01 T10131026  RH  091%=      5-min Rain = 0
KARS 141855Z 20011KT M01/M03 A3027 RMK A01 T10141027  RH  091%=      5-min Rain = 0
KARS 141900Z 20012KT M01/M03 A3027 RMK A01 T10131026  RH  092%=      5-min Rain = 0
KARS 141905Z 20011KT M01/M03 A3027 RMK A01 T10131026  RH  091%=      5-min Rain = 0
KARS 141910Z 19013KT M01/M03 A3027 RMK A01 T10121025  RH  091%=      5-min Rain = 0
KARS 141915Z 20013KT M01/M02 A3026 RMK A01 T10111024  RH  091%=      5-min Rain = 0
KARS 141920Z 20011KT M01/M02 A3026 RMK A01 T10101024  RH  091%=      5-min Rain = 0
KARS 141925Z 19012KT M01/M02 A3025 RMK A01 T10091022  RH  091%=      5-min Rain = 0
KARS 141930Z 19012KT M01/M02 A3025 RMK A01 T10071021  RH  091%=      5-min Rain = 0
KARS 141935Z 20011G16KT M01/M02 A3024 RMK A01 T10071021  RH  091%=      5-min Rain = 0
KARS 141940Z 19013KT M01/M02 A3024 RMK A01 T10061021  RH  090%=      5-min Rain = 0
KARS 141945Z 19013KT M01/M02 A3024 RMK A01 T10051020  RH  091%=      5-min Rain = 0
KARS 141950Z 19012KT M00/M02 A3024 RMK A01 T10041019  RH  091%=      5-min Rain = 0
KARS 141955Z 19012KT M00/M02 A3024 RMK A01 T10041018  RH  091%=      5-min Rain = 0
KARS 142000Z 20013KT M00/M02 A3023 RMK A01 T10021018  RH  090%=      5-min Rain = 0
KARS 142005Z 20013KT 00/02 A3023 RMK A01 T00-00-17  RH  089%=      5-min Rain = 0
KARS 142010Z 20015KT 00/M02 A3023 RMK A01 T00011017  RH  088%=      5-min Rain = 0
KARS 142015Z 21015G21KT 00/M02 A3022 RMK A01 T00021017  RH  088%=      5-min Rain = 0
KARS 142020Z 21014KT 00/M02 A3022 RMK A01 T00021017  RH  088%=      5-min Rain = 0
KARS 142025Z 19012KT 01/M01 A3022 RMK A01 T00051014  RH  088%=      5-min Rain = 0
KARS 142030Z 20012KT 00/M02 A3021 RMK A01 T00041015  RH  088%=      5-min Rain = 0
KARS 142035Z 19012KT 01/M01 A3021 RMK A01 T00051014  RH  088%=      5-min Rain = 0
KARS 142040Z 19013KT 01/M01 A302 RMK A01 T00051012  RH  089%=      5-min Rain = 0
KARS 142045Z 19013KT 01/M01 A302 RMK A01 T00071012  RH  088%=      5-min Rain = 0
KARS 142050Z 19013KT 01/M01 A302 RMK A01 T00071013  RH  088%=      5-min Rain = 0
KARS 142055Z 20012KT 01/M01 A302 RMK A01 T00081012  RH  087%=      5-min Rain = 0
KARS 142100Z 19013KT 01/M01 A3019 RMK A01 T00091012  RH  086%=      5-min Rain = 0
KARS 142105Z 19013KT 01/M01 A302 RMK A01 T00101011  RH  087%=      5-min Rain = 0
KARS 142110Z 18013KT 01/M01 A302 RMK A01 T00091012  RH  087%=      5-min Rain = 0
KARS 142115Z 19013KT 01/M01 A3019 RMK A01 T00111011  RH  086%=      5-min Rain = 0
KARS 142120Z 21013KT 01/M01 A3019 RMK A01 T00111012  RH  086%=      5-min Rain = 0
KARS 142125Z 20013G18KT 01/M01 A3019 RMK A01 T00101012  RH  086%=      5-min Rain = 0
KARS 142130Z 20012KT 01/M01 A3019 RMK A01 T00111011  RH  086%=      5-min Rain = 0
KARS 142135Z 20013KT 01/M01 A3018 RMK A01 T00131011  RH  085%=      5-min Rain = 0
KARS 142140Z 19013KT 01/M01 A3018 RMK A01 T00131010  RH  085%=      5-min Rain = 0
KARS 142145Z 20013KT 01/M01 A3018 RMK A01 T00131010  RH  085%=      5-min Rain = 0
KARS 142150Z 19013KT 01/M01 A3018 RMK A01 T00141010  RH  085%=      5-min Rain = 0
KARS 142155Z 19014KT 01/M01 A3018 RMK A01 T00131010  RH  086%=      5-min Rain = 0
KARS 142200Z 18014KT 01/M01 A3018 RMK A01 T00121010  RH  086%=      5-min Rain = 0
KARS 142205Z 19014KT 01/M01 A3018 RMK A01 T00121010  RH  086%=      5-min Rain = 0
KARS 142210Z 19013KT 01/M01 A3018 RMK A01 T00131009  RH  087%=      5-min Rain = 0
KARS 142215Z 19013KT 01/M01 A3018 RMK A01 T00131009  RH  086%=      5-min Rain = 0
KARS 142220Z 20013KT 01/M01 A3018 RMK A01 T00121010  RH  086%=      5-min Rain = 0
KARS 142225Z 19013KT 01/M01 A3018 RMK A01 T00121009  RH  086%=      5-min Rain = 0
KARS 142230Z 19013G18KT 01/M01 A3018 RMK A01 T00131009  RH  087%=      5-min Rain = 0
KARS 142235Z 19012KT 01/M01 A3017 RMK A01 T00121009  RH  087%=      5-min Rain = 0
KARS 142240Z 19014KT 01/M01 A3017 RMK A01 T00131009  RH  087%=      5-min Rain = 0
KARS 142245Z 19014KT 01/M01 A3017 RMK A01 T00131009  RH  086%=      5-min Rain = 0
KARS 142250Z 19012KT 01/M01 A3017 RMK A01 T00141008  RH  087%=      5-min Rain = 0
KARS 142255Z 19013KT 01/M01 A3017 RMK A01 T00141008  RH  086%=      5-min Rain = 0
KARS 142300Z 18014KT 01/M01 A3017 RMK A01 T00131008  RH  087%=      5-min Rain = 0
KARS 142305Z 19013KT 01/M01 A3017 RMK A01 T00131008  RH  087%=      5-min Rain = 0
KARS 142310Z 20013KT 01/M01 A3017 RMK A01 T00131008  RH  087%=      5-min Rain = 0
KARS 142315Z 18014KT 01/M01 A3016 RMK A01 T00141007  RH  087%=      5-min Rain = 0
KARS 142320Z 19014KT 01/M01 A3016 RMK A01 T00141007  RH  087%=      5-min Rain = 0
KARS 142325Z 18014KT 01/M01 A3016 RMK A01 T00141007  RH  087%=      5-min Rain = 0
KARS 142330Z 18015KT 01/M01 A3016 RMK A01 T00131007  RH  087%=      5-min Rain = 0
KARS 142335Z 18014KT 01/M01 A3016 RMK A01 T00131007  RH  087%=      5-min Rain = 0
KARS 142340Z 18013KT 01/M01 A3016 RMK A01 T00131007  RH  087%=      5-min Rain = 0
KARS 142345Z 18014KT 01/M01 A3016 RMK A01 T00131007  RH  087%=      5-min Rain = 0
KARS 142350Z 18015KT 01/M01 A3016 RMK A01 T00121008  RH  087%=      5-min Rain = 0
KARS 142355Z 18015KT 01/M01 A3016 RMK A01 T00111008  RH  088%=      5-min Rain = 0
KARS 150000Z 18015KT 01/M01 A3016 RMK A01 T00111007  RH  088%=      5-min Rain = 0
KARS 150005Z 18016KT 01/M01 A3015 RMK A01 T00101008  RH  089%=      5-min Rain = 0
KARS 150010Z 18015G20KT 01/M01 A3015 RMK A01 T00101007  RH  089%=      5-min Rain = 0
KARS 150015Z 18015KT 01/M01 A3015 RMK A01 T00111007  RH  089%=      5-min Rain = 0
KARS 150020Z 18015G20KT 01/M01 A3015 RMK A01 T00111006  RH  089%=      5-min Rain = 0
KARS 150025Z 18013KT 01/M01 A3016 RMK A01 T00111006  RH  089%=      5-min Rain = 0
KARS 150030Z 18012KT 01/M01 A3016 RMK A01 T00111006  RH  089%=      5-min Rain = 0
KARS 150035Z 18011KT 01/M01 A3016 RMK A01 T00111006  RH  090%=      5-min Rain = 0
KARS 150040Z 19013KT 01/M01 A3016 RMK A01 T00111006  RH  090%=      5-min Rain = 0
KARS 150045Z 19011KT 01/M01 A3016 RMK A01 T00111005  RH  090%=      5-min Rain = 0
KARS 150050Z 19011KT 01/M00 A3016 RMK A01 T00111004  RH  090%=      5-min Rain = 0
KARS 150055Z 20012KT 01/M00 A3016 RMK A01 T00121004  RH  090%=      5-min Rain = 0
KARS 150100Z 19011KT 01/M00 A3016 RMK A01 T00131003  RH  090%=      5-min Rain = 0
KARS 150105Z 19011KT 01/M00 A3016 RMK A01 T00131003  RH  091%=      5-min Rain = 0
KARS 150110Z 18012KT 01/M00 A3016 RMK A01 T00131003  RH  090%=      5-min Rain = 0
KARS 150115Z 19010KT 01/M00 A3016 RMK A01 T00131002  RH  090%=      5-min Rain = 0
KARS 150120Z 19011KT 01/M00 A3016 RMK A01 T00141002  RH  090%=      5-min Rain = 0
KARS 150125Z 19011KT 01/M00 A3016 RMK A01 T00141001  RH  090%=      5-min Rain = 0
KARS 150130Z 19010KT 02/M00 A3016 RMK A01 T00151001  RH  090%=      5-min Rain = 0
KARS 150135Z 19009KT 02/00 A3016 RMK A01 T001500-0  RH  090%=      5-min Rain = 0
KARS 150140Z 19008KT 02/00 A3016 RMK A01 T001500-0  RH  090%=      5-min Rain = 0
KARS 150145Z 20009KT 02/M00 A3016 RMK A01 T00151001  RH  090%=      5-min Rain = 0
KARS 150150Z 20008KT 01/M00 A3016 RMK A01 T00141002  RH  090%=      5-min Rain = 0
KARS 150155Z 20007KT 01/M01 A3016 RMK A01 T00101005  RH  091%=      5-min Rain = 0
KARS 150200Z 20007KT 01/M01 A3016 RMK A01 T00061008  RH  091%=      5-min Rain = 0
KARS 150205Z 19007KT 00/M01 A3015 RMK A01 T00021011  RH  092%=      5-min Rain = 0
KARS 150210Z 20006KT M00/M01 A3015 RMK A01 T10011014  RH  092%=      5-min Rain = 0
KARS 150215Z 20007KT M00/M02 A3015 RMK A01 T10041015  RH  093%=      5-min Rain = 0
KARS 150220Z 21008KT M01/M02 A3015 RMK A01 T10051016  RH  093%=      5-min Rain = 0
KARS 150225Z 21008KT M01/M02 A3015 RMK A01 T10061016  RH  094%=      5-min Rain = 0
KARS 150230Z 19007KT M01/M02 A3015 RMK A01 T10071017  RH  094%=      5-min Rain = 0
KARS 150235Z 19007KT M01/M02 A3015 RMK A01 T10111021  RH  094%=      5-min Rain = 0
KARS 150240Z 19006KT M01/M02 A3015 RMK A01 T10131022  RH  094%=      5-min Rain = 0
KARS 150245Z 19006KT M02/M02 A3015 RMK A01 T10151023  RH  095%=      5-min Rain = 0
KARS 150250Z 19006KT M02/M03 A3015 RMK A01 T10181026  RH  095%=      5-min Rain = 0
KARS 150255Z 19008KT M02/M03 A3015 RMK A01 T10201028  RH  095%=      5-min Rain = 0
KARS 150300Z 19008KT M02/M03 A3015 RMK A01 T10191026  RH  096%=      5-min Rain = 0
KARS 150305Z 20008KT M02/M03 A3015 RMK A01 T10181025  RH  096%=      5-min Rain = 0
KARS 150310Z 20007KT M02/M02 A3015 RMK A01 T10171024  RH  096%=      5-min Rain = 0
KARS 150315Z 19007KT M02/M02 A3015 RMK A01 T10151022  RH  096%=      5-min Rain = 0
KARS 150320Z 19008KT M01/M02 A3015 RMK A01 T10131019  RH  096%=      5-min Rain = 0
KARS 150325Z 19008KT M01/M02 A3015 RMK A01 T10121018  RH  096%=      5-min Rain = 0
KARS 150330Z 19008KT M01/M02 A3015 RMK A01 T10131019  RH  096%=      5-min Rain = 0
KARS 150335Z 19008KT M01/M02 A3015 RMK A01 T10131019  RH  096%=      5-min Rain = 0
KARS 150340Z 19008KT M01/M02 A3015 RMK A01 T10121018  RH  096%=      5-min Rain = 0
KARS 150345Z 20008KT M01/M02 A3015 RMK A01 T10131019  RH  096%=      5-min Rain = 0
KARS 150350Z 20008KT M01/M02 A3015 RMK A01 T10121018  RH  096%=      5-min Rain = 0
KARS 150355Z 20008KT M01/M02 A3015 RMK A01 T10131019  RH  096%=      5-min Rain = 0
KARS 150400Z 20008KT M01/M02 A3015 RMK A01 T10141020  RH  096%=      5-min Rain = 0
KARS 150405Z 19009KT M01/M02 A3015 RMK A01 T10141020  RH  096%=      5-min Rain = 0
KARS 150410Z 19009KT M01/M02 A3014 RMK A01 T10141021  RH  096%=      5-min Rain = 0
KARS 150415Z 19010KT M01/M02 A3014 RMK A01 T10131019  RH  097%=      5-min Rain = 0
KARS 150420Z 19011KT M01/M02 A3014 RMK A01 T10111017  RH  097%=      5-min Rain = 0
KARS 150425Z 19010KT M01/M01 A3013 RMK A01 T10081014  RH  097%=      5-min Rain = 0
KARS 150430Z 19010KT M01/M01 A3013 RMK A01 T10071013  RH  097%=      5-min Rain = 0
KARS 150435Z 19010KT M01/M01 A3013 RMK A01 T10071014  RH  096%=      5-min Rain = 0
KARS 150440Z 19010KT M01/M01 A3013 RMK A01 T10071014  RH  096%=      5-min Rain = 0
KARS 150445Z 19009KT M01/M01 A3013 RMK A01 T10071014  RH  096%=      5-min Rain = 0
KARS 150450Z 19009KT M01/M01 A3013 RMK A01 T10071014  RH  096%=      5-min Rain = 0
KARS 150455Z 19008KT M01/M01 A3013 RMK A01 T10061013  RH  096%=      5-min Rain = 0
KARS 150500Z 19009KT M00/M01 A3013 RMK A01 T10021009  RH  096%=      5-min Rain = 0
KARS 150505Z 19009KT 00/M01 A3013 RMK A01 T00041005  RH  095%=      5-min Rain = 0
KARS 150510Z 20009KT 01/M00 A3012 RMK A01 T00051004  RH  094%=      5-min Rain = 0
KARS 150515Z 19010KT 01/M01 A3012 RMK A01 T00061005  RH  094%=      5-min Rain = 0
KARS 150520Z 19010KT 01/M00 A3012 RMK A01 T00081004  RH  093%=      5-min Rain = 0
KARS 150525Z 19011KT 01/M00 A3012 RMK A01 T00091003  RH  093%=      5-min Rain = 0
KARS 150530Z 19012KT 01/M00 A3012 RMK A01 T00091003  RH  092%=      5-min Rain = 0
KARS 150535Z 19012KT 01/M00 A3012 RMK A01 T00091003  RH  093%=      5-min Rain = 0
KARS 150540Z 19013KT 01/M00 A3012 RMK A01 T00101002  RH  093%=      5-min Rain = 0
KARS 150545Z 19013KT 01/M00 A3011 RMK A01 T00111002  RH  093%=      5-min Rain = 0
KARS 150550Z 20013KT 01/00 A3011 RMK A01 T00130000  RH  092%=      5-min Rain = 0
KARS 150555Z 20013KT 01/00 A3012 RMK A01 T00140001  RH  092%=      5-min Rain = 0

Page generated in 0.0424 seconds.